Time;durP1;ratioP1;P1;durP2;ratioP2;P2;SDS_P1;SDS_P2;PMS_P1;PMS_P2;Temp;Humidity;BMP_temperature;BMP_pressure;BME280_temperature;BME280_humidity;BME280_pressure;Samples;Min_cycle;Max_cycle;Signal;HPM_P1;HPM_P2
2023/11/01 00:00:26;;;;;;;3.90;3.40;;;;;;;11.81;100.00;96738.60;110128;1242;59636;-70
2023/11/01 00:03:16;;;;;;;4.50;3.20;;;;;;;11.81;100.00;96760.05;110130;1240;71805;-68
2023/11/01 00:05:47;;;;;;;4.60;3.10;;;;;;;11.82;100.00;96763.34;110169;1242;69486;-69
2023/11/01 00:08:17;;;;;;;5.70;3.30;;;;;;;11.83;100.00;96755.42;110128;1246;69361;-70
2023/11/01 00:10:47;;;;;;;5.50;3.30;;;;;;;11.83;100.00;96759.61;110133;1242;59689;-68
2023/11/01 00:13:17;;;;;;;4.90;2.90;;;;;;;11.84;100.00;96770.30;110201;1250;59745;-69
2023/11/01 00:15:48;;;;;;;4.50;2.90;;;;;;;11.84;100.00;96774.48;110156;1244;71334;-69
2023/11/01 00:18:19;;;;;;;3.60;2.80;;;;;;;11.84;100.00;96766.83;110142;1245;69253;-69
2023/11/01 00:20:50;;;;;;;3.60;2.50;;;;;;;11.84;100.00;96765.98;110128;1241;69343;-68
2023/11/01 00:23:19;;;;;;;;;;;;;;;11.85;100.00;96768.45;110136;1243;59694;-68
2023/11/01 00:25:50;;;;;;;3.20;2.60;;;;;;;11.85;100.00;96766.06;110157;1242;59675;-69
2023/11/01 00:28:21;;;;;;;3.90;2.90;;;;;;;11.85;100.00;96762.04;110118;1241;71697;-69
2023/11/01 00:30:54;;;;;;;3.60;2.80;;;;;;;11.82;100.00;96748.11;110133;1242;69080;-69
2023/11/01 00:33:26;;;;;;;3.70;2.90;;;;;;;11.81;100.00;96740.52;110103;1249;69191;-68
2023/11/01 00:35:57;;;;;;;4.00;2.90;;;;;;;11.80;100.00;96733.66;110131;1242;59804;-69
2023/11/01 00:38:30;;;;;;;5.20;3.50;;;;;;;11.79;100.00;96721.70;110155;1243;59686;-69
2023/11/01 00:41:02;;;;;;;3.70;3.00;;;;;;;11.77;100.00;96696.02;110149;1242;71456;-68
2023/11/01 00:43:39;;;;;;;5.60;3.60;;;;;;;11.73;100.00;96685.91;110145;1244;68930;-69
2023/11/01 00:46:14;;;;;;;4.20;2.90;;;;;;;11.68;100.00;96697.14;110129;1244;68552;-69
2023/11/01 00:48:46;;;;;;;6.40;4.40;;;;;;;11.66;100.00;96684.73;110153;1242;59715;-68
2023/11/01 00:51:19;;;;;;;5.20;4.40;;;;;;;11.64;100.00;96664.00;110183;1242;59658;-69
2023/11/01 00:53:53;;;;;;;7.00;4.50;;;;;;;11.61;100.00;96657.15;110176;1242;71496;-69
2023/11/01 00:56:26;;;;;;;5.40;3.80;;;;;;;11.59;100.00;96657.66;110146;1252;69197;-70
2023/11/01 00:58:58;;;;;;;4.70;4.00;;;;;;;11.57;100.00;96651.20;110117;1240;68348;-70
2023/11/01 01:01:31;;;;;;;5.50;3.80;;;;;;;11.56;100.00;96647.98;110130;1240;59678;-69
2023/11/01 01:04:03;;;;;;;5.00;3.80;;;;;;;11.55;100.00;96632.73;110186;1242;59634;-69
2023/11/01 01:06:34;;;;;;;5.10;3.60;;;;;;;11.55;100.00;96627.33;110116;1243;70442;-69
2023/11/01 01:09:05;;;;;;;5.40;3.60;;;;;;;11.54;100.00;96646.55;110112;1244;68767;-69
2023/11/01 01:11:38;;;;;;;4.30;2.70;;;;;;;11.54;100.00;96663.80;110180;1242;69127;-69
2023/11/01 01:14:09;;;;;;;4.40;3.10;;;;;;;11.55;100.00;96669.04;110103;1242;59770;-68
2023/11/01 01:16:46;;;;;;;4.90;3.60;;;;;;;11.57;100.00;96662.72;110181;1240;59646;-70
2023/11/01 01:19:19;;;;;;;4.50;3.20;;;;;;;11.59;100.00;96661.84;110262;1243;70713;-69
2023/11/01 01:21:50;;;;;;;5.80;4.70;;;;;;;11.61;100.00;96660.60;110153;1243;69787;-69
2023/11/01 01:24:26;;;;;;;6.30;3.80;;;;;;;11.65;100.00;96651.86;110166;1241;68140;-69
2023/11/01 01:26:59;;;;;;;6.50;5.10;;;;;;;11.69;100.00;96648.73;110088;1242;59714;-69
2023/11/01 01:29:29;;;;;;;5.10;3.90;;;;;;;11.70;100.00;96642.04;110185;1243;59626;-69
2023/11/01 01:32:04;;;;;;;6.70;4.50;;;;;;;11.68;100.00;96632.35;110186;1241;71387;-69
2023/11/01 01:34:40;;;;;;;4.50;3.40;;;;;;;11.67;100.00;96630.53;110178;1242;68385;-69
2023/11/01 01:37:24;;;;;;;5.00;3.10;;;;;;;11.65;100.00;96644.00;110191;1243;68726;-69
2023/11/01 01:39:54;;;;;;;4.50;2.80;;;;;;;11.63;100.00;96650.80;110117;1244;59680;-69
2023/11/01 01:42:34;;;;;;;7.40;5.90;;;;;;;11.60;100.00;96655.49;110165;1242;59687;-69
2023/11/01 01:45:11;;;;;;;6.10;5.30;;;;;;;11.56;100.00;96646.56;110178;1241;71465;-69
2023/11/01 01:47:55;;;;;;;6.20;5.20;;;;;;;11.54;100.00;96642.59;110236;1241;69246;-69
2023/11/01 01:50:31;;;;;;;7.20;4.40;;;;;;;11.54;100.00;96640.34;110133;1242;69276;-69
2023/11/01 01:53:08;;;;;;;6.90;4.50;;;;;;;11.52;100.00;96633.70;110107;1245;59693;-69
2023/11/01 01:55:44;;;;;;;5.20;4.10;;;;;;;11.52;100.00;96635.80;110106;1243;59625;-70
2023/11/01 01:58:30;;;;;;;5.60;3.80;;;;;;;11.51;100.00;96634.61;110147;1243;71369;-70
2023/11/01 02:01:17;;;;;;;4.40;3.70;;;;;;;11.53;100.00;96633.09;110132;1252;68100;-69
2023/11/01 02:04:05;;;;;;;4.70;3.80;;;;;;;11.52;100.00;96632.60;110194;1241;69275;-69
2023/11/01 02:06:45;;;;;;;4.30;3.40;;;;;;;11.53;100.00;96632.02;110014;1246;59740;-69
2023/11/01 02:09:36;;;;;;;4.80;3.10;;;;;;;11.54;100.00;96631.88;110213;1241;59710;-69
2023/11/01 02:12:24;;;;;;;3.80;3.20;;;;;;;11.53;100.00;96635.55;110126;1241;71784;-70
2023/11/01 02:15:01;;;;;;;5.90;3.30;;;;;;;11.51;100.00;96626.12;110152;1245;68377;-70
2023/11/01 02:17:35;;;;;;;5.40;3.20;;;;;;;11.47;100.00;96624.19;110090;1245;69144;-70
2023/11/01 02:20:16;;;;;;;3.40;3.10;;;;;;;11.45;100.00;96633.10;110131;1243;59735;-70
2023/11/01 02:22:58;;;;;;;4.20;2.80;;;;;;;11.42;100.00;96630.02;110131;1245;59741;-71
2023/11/01 02:25:31;;;;;;;4.90;3.80;;;;;;;11.41;100.00;96637.41;110089;1245;70484;-70
2023/11/01 02:28:06;;;;;;;4.60;3.90;;;;;;;11.40;100.00;96639.57;110145;1244;68446;-70
2023/11/01 02:30:39;;;;;;;4.80;4.20;;;;;;;11.38;100.00;96637.89;110165;1242;69258;-69
2023/11/01 02:33:25;;;;;;;4.20;3.30;;;;;;;11.36;100.00;96635.08;110156;1242;60229;-70
2023/11/01 02:35:56;;;;;;;4.00;3.40;;;;;;;11.33;100.00;96632.02;110159;1241;59737;-69
2023/11/01 02:38:29;;;;;;;4.80;3.60;;;;;;;11.30;100.00;96628.84;110160;1242;70461;-70
2023/11/01 02:41:03;;;;;;;3.50;3.00;;;;;;;11.27;100.00;96628.55;110155;1241;69259;-69
2023/11/01 02:43:35;;;;;;;4.70;3.10;;;;;;;11.24;100.00;96627.29;110114;1243;69359;-70
2023/11/01 02:46:06;;;;;;;4.00;3.10;;;;;;;11.21;100.00;96629.36;110143;1243;59691;-70
2023/11/01 02:48:41;;;;;;;4.20;3.50;;;;;;;11.19;100.00;96627.28;110114;1242;59754;-70
2023/11/01 02:51:20;;;;;;;4.70;3.70;;;;;;;11.16;100.00;96618.89;110135;1242;71480;-68
2023/11/01 02:53:51;;;;;;;5.30;4.50;;;;;;;11.10;100.00;96614.67;110158;1243;69252;-69
2023/11/01 02:56:22;;;;;;;5.20;3.70;;;;;;;11.06;100.00;96614.86;110093;1242;69329;-70
2023/11/01 02:58:57;;;;;;;4.70;3.50;;;;;;;11.05;100.00;96606.08;110159;1242;59737;-70
2023/11/01 03:01:28;;;;;;;4.80;3.90;;;;;;;11.04;100.00;96598.48;110148;1241;59670;-69
2023/11/01 03:04:01;;;;;;;4.50;4.00;;;;;;;11.03;100.00;96592.95;110136;1242;71372;-69
2023/11/01 03:06:33;;;;;;;4.30;3.50;;;;;;;10.99;100.00;96591.44;110111;1245;68541;-69
2023/11/01 03:09:10;;;;;;;6.00;3.90;;;;;;;10.94;100.00;96593.07;110123;1241;69270;-70
2023/11/01 03:11:41;;;;;;;4.80;4.30;;;;;;;10.89;100.00;96591.36;110112;1241;59719;-70
2023/11/01 03:14:15;;;;;;;6.00;4.70;;;;;;;10.84;100.00;96589.76;110139;1242;59632;-69
2023/11/01 03:16:47;;;;;;;6.00;5.20;;;;;;;10.78;100.00;96593.96;110132;1242;70641;-69
2023/11/01 03:19:21;;;;;;;7.70;5.60;;;;;;;10.72;100.00;96595.36;110070;1245;67968;-69
2023/11/01 03:21:53;;;;;;;6.10;4.80;;;;;;;10.67;100.00;96596.09;110112;1242;69112;-69
2023/11/01 03:24:26;;;;;;;5.30;4.40;;;;;;;10.62;100.00;96595.64;110104;1240;59664;-69
2023/11/01 03:26:59;;;;;;;5.30;4.10;;;;;;;10.58;100.00;96596.52;110155;1242;59679;-69
2023/11/01 03:29:35;;;;;;;6.20;4.10;;;;;;;10.53;100.00;96597.85;110175;1243;70627;-69
2023/11/01 03:32:08;;;;;;;5.80;4.10;;;;;;;10.48;100.00;96599.09;110152;1242;69608;-69
2023/11/01 03:34:42;;;;;;;4.00;3.40;;;;;;;10.42;100.00;96606.75;110095;1249;69269;-69
2023/11/01 03:37:12;;;;;;;5.30;4.00;;;;;;;10.36;100.00;96610.23;110135;1242;59638;-69
2023/11/01 03:39:45;;;;;;;4.50;4.00;;;;;;;10.29;100.00;96611.75;110139;1241;59677;-69
2023/11/01 03:42:20;;;;;;;4.00;3.00;;;;;;;10.21;100.00;96611.10;110155;1243;71467;-69
2023/11/01 03:44:56;;;;;;;5.20;3.70;;;;;;;10.17;100.00;96617.88;110197;1242;69112;-69
2023/11/01 03:47:27;;;;;;;6.30;4.00;;;;;;;10.12;100.00;96620.73;110141;1242;69368;-69
2023/11/01 03:50:00;;;;;;;4.00;3.30;;;;;;;10.08;100.00;96626.50;110176;1242;59700;-69
2023/11/01 03:52:36;;;;;;;4.10;3.30;;;;;;;10.04;100.00;96636.63;110174;1240;59727;-69
2023/11/01 03:55:11;;;;;;;5.30;3.70;;;;;;;10.00;100.00;96639.06;110165;1241;70641;-69
2023/11/01 03:57:44;;;;;;;5.00;4.10;;;;;;;9.94;100.00;96647.46;110136;1242;68498;-69
2023/11/01 04:00:20;;;;;;;4.10;3.40;;;;;;;9.91;100.00;96653.81;110162;1242;69312;-69
2023/11/01 04:02:53;;;;;;;6.40;4.20;;;;;;;9.91;100.00;96654.58;110134;1241;59693;-69
2023/11/01 04:05:24;;;;;;;6.80;5.30;;;;;;;9.93;100.00;96652.77;110160;1243;59694;-69
2023/11/01 04:07:55;;;;;;;5.70;5.10;;;;;;;9.97;100.00;96654.23;110190;1245;71524;-69
2023/11/01 04:10:25;;;;;;;5.60;4.60;;;;;;;9.96;100.00;96653.95;110122;1242;68238;-69
2023/11/01 04:12:55;;;;;;;4.50;3.60;;;;;;;9.95;100.00;96650.20;110184;1242;69337;-70
2023/11/01 04:15:26;;;;;;;3.80;3.20;;;;;;;9.94;100.00;96647.33;110149;1245;59750;-70
2023/11/01 04:18:01;;;;;;;4.70;3.90;;;;;;;9.93;100.00;96649.89;110206;1243;59678;-70
2023/11/01 04:20:34;;;;;;;4.10;3.30;;;;;;;9.91;100.00;96646.86;110187;1243;71346;-70
2023/11/01 04:23:05;;;;;;;4.70;3.20;;;;;;;9.92;100.00;96652.52;110201;1242;69371;-70
2023/11/01 04:25:35;;;;;;;4.50;4.00;;;;;;;9.94;100.00;96655.65;110178;1241;69600;-70
2023/11/01 04:28:06;;;;;;;6.20;4.60;;;;;;;9.96;100.00;96657.42;110174;1242;59684;-70
2023/11/01 04:30:40;;;;;;;6.20;4.90;;;;;;;9.96;100.00;96659.34;110154;1242;59676;-70
2023/11/01 04:33:12;;;;;;;3.90;3.50;;;;;;;9.99;100.00;96666.45;110156;1241;70643;-70
2023/11/01 04:35:43;;;;;;;4.50;3.70;;;;;;;10.03;100.00;96669.77;110118;1242;68340;-70
2023/11/01 04:38:14;;;;;;;4.70;3.60;;;;;;;10.06;100.00;96671.05;110166;1242;69159;-69
2023/11/01 04:40:45;;;;;;;4.90;3.80;;;;;;;10.07;100.00;96671.66;110167;1240;59727;-69
2023/11/01 04:43:20;;;;;;;4.20;3.60;;;;;;;10.08;100.00;96675.57;110129;1242;59737;-69
2023/11/01 04:45:50;;;;;;;4.40;3.10;;;;;;;10.10;100.00;96675.77;110154;1242;70618;-68
2023/11/01 04:48:21;;;;;;;3.60;3.30;;;;;;;10.12;100.00;96679.96;110159;1242;69224;-69
2023/11/01 04:50:51;;;;;;;5.90;4.30;;;;;;;10.14;100.00;96683.27;110115;1241;68176;-69
2023/11/01 04:53:23;;;;;;;3.90;3.30;;;;;;;10.17;100.00;96685.10;110126;1242;60130;-70
2023/11/01 04:55:54;;;;;;;4.60;3.30;;;;;;;10.20;100.00;96687.48;110176;1245;59744;-71
2023/11/01 04:58:25;;;;;;;6.50;4.90;;;;;;;10.21;100.00;96694.71;110211;1242;70677;-70
2023/11/01 05:00:57;;;;;;;4.20;3.70;;;;;;;10.22;100.00;96697.15;110229;1242;68526;-70
2023/11/01 05:03:28;;;;;;;6.20;4.70;;;;;;;10.25;100.00;96702.96;110185;1243;69735;-70
2023/11/01 05:05:58;;;;;;;5.10;3.70;;;;;;;10.29;100.00;96708.19;110143;1243;59751;-69
2023/11/01 05:08:29;;;;;;;4.10;3.30;;;;;;;10.30;100.00;96710.75;110200;1243;59639;-70
2023/11/01 05:10:59;;;;;;;6.30;5.30;;;;;;;10.32;100.00;96714.59;110175;1243;70637;-70
2023/11/01 05:13:30;;;;;;;6.30;3.90;;;;;;;10.35;100.00;96714.67;110142;1242;68543;-70
2023/11/01 05:16:04;;;;;;;16.70;11.20;;;;;;;10.40;100.00;96718.25;110176;1243;69714;-70
2023/11/01 05:18:36;;;;;;;9.40;7.30;;;;;;;10.48;100.00;96717.98;110178;1242;59727;-70
2023/11/01 05:21:07;;;;;;;9.60;7.40;;;;;;;10.50;100.00;96724.02;110205;1242;59636;-69
2023/11/01 05:23:38;;;;;;;15.60;9.90;;;;;;;10.52;100.00;96728.13;110172;1241;72317;-70
2023/11/01 05:26:14;;;;;;;14.70;11.00;;;;;;;10.52;100.00;96734.31;110213;1242;69448;-70
2023/11/01 05:28:44;;;;;;;19.60;12.50;;;;;;;10.44;100.00;96742.13;110122;1242;69283;-70
2023/11/01 05:31:16;;;;;;;25.30;17.00;;;;;;;10.31;100.00;96741.64;110184;1241;59748;-69
2023/11/01 05:33:46;;;;;;;26.70;16.90;;;;;;;10.31;100.00;96746.36;110198;1242;59748;-68
2023/11/01 05:36:16;;;;;;;28.10;18.40;;;;;;;10.34;100.00;96750.94;110180;1241;71892;-69
2023/11/01 05:38:46;;;;;;;21.00;14.40;;;;;;;10.30;100.00;96756.71;110196;1241;69062;-70
2023/11/01 05:41:16;;;;;;;11.50;9.00;;;;;;;10.34;100.00;96760.52;110166;1244;68359;-69
2023/11/01 05:43:49;;;;;;;5.60;4.80;;;;;;;10.45;100.00;96770.09;110266;1242;59735;-69
2023/11/01 05:46:22;;;;;;;3.40;2.70;;;;;;;10.53;100.00;96767.00;110327;1244;59641;-68
2023/11/01 05:48:53;;;;;;;3.90;2.90;;;;;;;10.53;100.00;96766.09;110318;1243;71202;-69
2023/11/01 05:51:22;;;;;;;3.40;2.40;;;;;;;10.58;100.00;96773.52;110353;1241;69235;-69
2023/11/01 05:53:53;;;;;;;2.90;2.60;;;;;;;10.62;100.00;96780.16;110265;1242;68558;-69
2023/11/01 05:56:23;;;;;;;2.30;1.70;;;;;;;10.60;100.00;96778.41;110349;1242;59744;-68
2023/11/01 05:58:57;;;;;;;2.20;1.70;;;;;;;10.59;100.00;96788.80;110288;1242;59644;-69
2023/11/01 06:01:26;;;;;;;2.60;1.30;;;;;;;10.61;100.00;96804.00;110284;1241;70670;-71
2023/11/01 06:04:00;;;;;;;1.70;1.20;;;;;;;10.56;100.00;96807.70;110239;1242;68963;-70
2023/11/01 06:06:30;;;;;;;1.80;1.40;;;;;;;10.55;100.00;96811.61;110197;1242;69295;-69
2023/11/01 06:09:00;;;;;;;4.10;3.10;;;;;;;10.60;100.00;96814.70;110216;1242;59721;-69
2023/11/01 06:11:31;;;;;;;6.30;4.90;;;;;;;10.62;100.00;96819.41;110183;1243;59631;-68
2023/11/01 06:14:06;;;;;;;6.70;4.10;;;;;;;10.62;100.00;96827.94;110158;1244;71222;-69
2023/11/01 06:16:36;;;;;;;6.40;5.30;;;;;;;10.63;100.00;96841.23;110187;1242;69965;-69
2023/11/01 06:19:05;;;;;;;7.90;5.40;;;;;;;10.64;100.00;96847.95;110146;1243;69775;-69
2023/11/01 06:21:36;;;;;;;5.90;4.90;;;;;;;10.65;100.00;96849.44;110202;1242;59689;-69
2023/11/01 06:24:06;;;;;;;5.10;4.20;;;;;;;10.67;100.00;96855.05;110206;1241;60169;-68
2023/11/01 06:26:36;;;;;;;6.40;4.50;;;;;;;10.61;100.00;96862.30;110187;1244;71407;-68
2023/11/01 06:29:07;;;;;;;4.70;4.20;;;;;;;10.64;100.00;96866.43;110176;1243;69007;-68
2023/11/01 06:31:36;;;;;;;4.60;3.40;;;;;;;10.66;100.00;96871.14;110132;1242;68499;-69
2023/11/01 06:34:06;;;;;;;3.70;2.90;;;;;;;10.66;100.00;96874.11;110179;1242;59734;-70
2023/11/01 06:36:36;;;;;;;3.10;2.50;;;;;;;10.67;100.00;96882.73;110220;1242;59700;-69
2023/11/01 06:39:05;;;;;;;3.70;2.70;;;;;;;10.69;100.00;96885.60;110177;1242;70671;-68
2023/11/01 06:41:36;;;;;;;2.80;2.30;;;;;;;10.69;100.00;96894.44;110153;1242;69236;-69
2023/11/01 06:44:07;;;;;;;3.10;2.30;;;;;;;10.69;100.00;96898.25;110122;1242;69194;-69
2023/11/01 06:46:36;;;;;;;3.00;2.20;;;;;;;10.69;100.00;96903.52;110178;1241;60101;-69
2023/11/01 06:49:08;;;;;;;2.00;1.80;;;;;;;10.67;100.00;96907.13;110121;1242;59616;-69
2023/11/01 06:51:39;;;;;;;2.70;2.10;;;;;;;10.65;100.00;96912.88;110172;1240;71814;-69
2023/11/01 06:54:08;;;;;;;2.40;1.70;;;;;;;10.66;100.00;96922.89;110183;1242;69908;-69
2023/11/01 06:56:46;;;;;;;3.30;2.20;;;;;;;10.68;100.00;96925.68;110136;1242;68343;-69
2023/11/01 06:59:15;;;;;;;2.70;2.20;;;;;;;10.70;100.00;96933.70;110150;1242;59679;-69
2023/11/01 07:01:45;;;;;;;3.00;2.00;;;;;;;10.76;100.00;96935.55;110142;1242;59639;-69
2023/11/01 07:04:18;;;;;;;2.80;2.30;;;;;;;10.75;100.00;96941.59;110127;1242;71931;-69
2023/11/01 07:06:47;;;;;;;2.90;1.80;;;;;;;10.75;100.00;96940.32;110169;1242;69742;-70
2023/11/01 07:09:16;;;;;;;2.20;1.80;;;;;;;10.72;100.00;96942.99;110149;1242;67628;-70
2023/11/01 07:11:47;;;;;;;2.20;1.40;;;;;;;10.66;100.00;96946.12;110186;1242;59688;-70
2023/11/01 07:14:20;;;;;;;2.60;1.40;;;;;;;10.61;100.00;96944.71;110143;1241;59662;-69
2023/11/01 07:16:50;;;;;;;1.80;1.20;;;;;;;10.64;100.00;96952.40;110220;1241;70659;-69
2023/11/01 07:19:20;;;;;;;1.90;1.20;;;;;;;10.62;100.00;96956.52;110164;1242;69447;-70
2023/11/01 07:21:49;;;;;;;1.30;1.10;;;;;;;10.60;100.00;96964.35;110148;1242;69278;-70
2023/11/01 07:24:21;;;;;;;1.50;1.20;;;;;;;10.61;100.00;96965.45;110078;1241;59659;-68
2023/11/01 07:26:51;;;;;;;1.40;1.10;;;;;;;10.53;100.00;96963.84;110221;1242;59692;-70
2023/11/01 07:29:20;;;;;;;1.20;1.10;;;;;;;10.56;100.00;96973.57;110205;1242;71311;-69
2023/11/01 07:31:50;;;;;;;1.40;1.10;;;;;;;10.54;100.00;96977.40;110237;1242;69394;-69
2023/11/01 07:34:19;;;;;;;1.50;1.20;;;;;;;10.55;100.00;96976.98;110166;1244;69802;-70
2023/11/01 07:36:47;;;;;;;1.70;1.00;;;;;;;10.53;100.00;96981.34;110130;1241;59702;-69
2023/11/01 07:39:20;;;;;;;1.80;1.30;;;;;;;10.40;100.00;96978.83;110142;1243;59642;-68
2023/11/01 07:41:49;;;;;;;1.40;1.20;;;;;;;10.41;100.00;96981.91;110161;1242;71965;-68
2023/11/01 07:44:19;;;;;;;1.30;1.00;;;;;;;10.46;100.00;96989.35;110153;1242;69304;-69
2023/11/01 07:46:48;;;;;;;1.10;1.00;;;;;;;10.48;100.00;96992.86;110123;1242;68560;-69
2023/11/01 07:49:17;;;;;;;2.20;1.10;;;;;;;10.54;100.00;97000.92;110157;1244;59681;-69
2023/11/01 07:51:49;;;;;;;2.00;1.40;;;;;;;10.66;100.00;97001.13;110170;1240;59676;-70
2023/11/01 07:54:19;;;;;;;1.70;1.40;;;;;;;10.83;100.00;97004.05;110184;1241;71421;-69
2023/11/01 07:56:48;;;;;;;4.40;3.00;;;;;;;11.17;100.00;97009.98;110213;1241;69106;-70
2023/11/01 07:59:18;;;;;;;7.30;4.10;;;;;;;11.46;100.00;97009.11;110136;1242;69862;-70
2023/11/01 08:01:50;;;;;;;9.60;5.70;;;;;;;11.87;99.99;97012.00;110136;1242;59748;-70
2023/11/01 08:04:20;;;;;;;18.70;11.50;;;;;;;12.45;99.87;97015.48;110252;1242;59647;-69
2023/11/01 08:06:49;;;;;;;12.30;7.10;;;;;;;13.33;97.19;97011.38;110347;1241;70805;-68
2023/11/01 08:09:18;;;;;;;1.60;1.30;;;;;;;14.26;93.28;97013.52;110276;1241;68485;-70
2023/11/01 08:11:47;;;;;;;1.90;1.30;;;;;;;15.02;85.65;97019.52;110238;1239;69575;-70
2023/11/01 08:14:16;;;;;;;1.10;0.80;;;;;;;15.51;77.97;97017.82;110300;1241;59794;-70
2023/11/01 08:16:47;;;;;;;1.10;0.90;;;;;;;15.87;76.03;97020.91;110230;1242;59748;-70
2023/11/01 08:19:17;;;;;;;2.00;1.10;;;;;;;16.74;78.88;97019.59;110187;1243;71415;-71
2023/11/01 08:21:46;;;;;;;1.00;0.70;;;;;;;17.59;76.55;97022.92;110194;1241;68955;-70
2023/11/01 08:24:15;;;;;;;1.60;0.80;;;;;;;17.86;67.97;97025.48;110266;1242;68644;-69
2023/11/01 08:26:44;;;;;;;2.20;1.00;;;;;;;18.25;63.14;97031.65;110145;1240;59756;-70
2023/11/01 08:29:14;;;;;;;3.30;1.80;;;;;;;18.74;61.62;97027.80;110211;1242;59689;-70
2023/11/01 08:31:43;;;;;;;2.50;1.60;;;;;;;18.82;59.09;97029.38;110187;1241;71256;-70
2023/11/01 08:34:12;;;;;;;3.70;1.80;;;;;;;19.48;64.62;97034.58;110152;1242;69726;-69
2023/11/01 08:36:41;;;;;;;2.30;1.40;;;;;;;20.03;61.64;97037.93;110205;1249;69291;-70
2023/11/01 08:39:10;;;;;;;1.20;0.70;;;;;;;20.18;56.38;97032.44;110143;1245;59739;-69
2023/11/01 08:41:40;;;;;;;0.60;0.50;;;;;;;20.42;53.85;97028.04;110220;1240;59699;-69
2023/11/01 08:44:11;;;;;;;1.50;0.80;;;;;;;20.32;51.88;97030.98;110186;1241;71185;-69
2023/11/01 08:46:43;;;;;;;1.20;0.70;;;;;;;20.46;50.54;97028.40;110304;1243;69220;-69
2023/11/01 08:49:13;;;;;;;2.50;1.70;;;;;;;20.64;50.14;97039.41;110151;1242;69312;-70
2023/11/01 08:51:42;;;;;;;1.40;0.80;;;;;;;20.92;48.99;97036.45;110211;1241;59732;-69
2023/11/01 08:54:11;;;;;;;2.10;1.20;;;;;;;21.47;48.36;97041.52;110214;1243;59644;-69
2023/11/01 08:56:42;;;;;;;2.40;1.50;;;;;;;21.75;48.05;97043.59;110170;1242;72165;-71
2023/11/01 08:59:11;;;;;;;1.50;0.90;;;;;;;21.88;45.78;97044.89;110226;1240;69178;-69
2023/11/01 09:01:40;;;;;;;1.10;0.60;;;;;;;21.71;45.30;97049.48;110128;1240;69965;-70
2023/11/01 09:04:13;;;;;;;1.90;1.10;;;;;;;21.80;44.14;97053.38;110166;1242;59689;-70
2023/11/01 09:06:44;;;;;;;1.60;0.80;;;;;;;22.17;44.58;97049.63;110174;1242;59676;-69
2023/11/01 09:09:15;;;;;;;;;;;;;;;22.76;44.59;97052.59;110147;1243;71273;-69
2023/11/01 09:11:44;;;;;;;0.90;0.50;;;;;;;23.02;43.23;97048.41;110191;1240;68604;-69
2023/11/01 09:14:13;;;;;;;1.00;0.70;;;;;;;22.74;41.78;97050.90;110145;1242;69163;-68
2023/11/01 09:16:43;;;;;;;1.20;0.40;;;;;;;23.03;42.69;97053.18;110189;1245;59660;-70
2023/11/01 09:19:12;;;;;;;1.60;0.50;;;;;;;23.87;42.93;97055.28;109868;1242;484186;-71
2023/11/01 09:21:42;;;;;;;0.70;0.50;;;;;;;22.69;40.99;97050.06;110159;1242;69800;-70
2023/11/01 09:24:13;;;;;;;0.80;0.50;;;;;;;22.74;41.86;97050.69;110171;1240;68661;-70
2023/11/01 09:26:42;;;;;;;0.60;0.40;;;;;;;22.76;41.55;97049.39;110118;1240;68796;-69
2023/11/01 09:29:14;;;;;;;1.20;0.40;;;;;;;23.41;42.40;97039.82;110175;1240;59738;-68
2023/11/01 09:31:43;;;;;;;2.30;0.60;;;;;;;22.24;41.85;97039.45;110160;1242;59628;-69
2023/11/01 09:34:13;;;;;;;0.60;0.50;;;;;;;21.90;43.19;97043.67;110166;1240;71959;-67
2023/11/01 09:36:45;;;;;;;0.40;0.40;;;;;;;22.24;43.51;97049.50;110118;1240;69048;-70
2023/11/01 09:39:14;;;;;;;0.50;0.50;;;;;;;22.78;42.65;97050.42;110151;1242;69304;-69
2023/11/01 09:41:59;;;;;;;0.80;0.60;;;;;;;22.70;41.85;97056.98;110175;1243;59738;-68
2023/11/01 09:44:31;;;;;;;1.10;0.40;;;;;;;22.01;42.45;97055.70;110172;1241;59778;-69
2023/11/01 09:47:02;;;;;;;1.50;0.80;;;;;;;21.58;42.83;97053.75;110169;1242;70632;-68
2023/11/01 09:49:31;;;;;;;1.10;0.80;;;;;;;20.86;43.62;97055.73;110151;1241;68549;-70
2023/11/01 09:52:03;;;;;;;1.20;0.60;;;;;;;20.05;44.22;97064.70;110185;1243;69309;-69
2023/11/01 09:54:32;;;;;;;1.60;0.80;;;;;;;19.17;46.52;97062.14;110159;1242;59741;-69
2023/11/01 09:57:05;;;;;;;0.80;0.70;;;;;;;18.45;48.06;97058.09;110169;1242;59661;-70
2023/11/01 09:59:34;;;;;;;1.60;0.80;;;;;;;17.62;50.74;97059.06;110196;1242;71400;-70
2023/11/01 10:02:04;;;;;;;1.20;0.80;;;;;;;16.89;53.71;97056.34;110181;1241;68334;-70
2023/11/01 10:04:35;;;;;;;1.20;0.70;;;;;;;16.26;56.85;97060.66;110252;1242;69915;-69
2023/11/01 10:07:06;;;;;;;2.00;0.90;;;;;;;15.93;59.65;97063.71;110182;1240;59754;-69
2023/11/01 10:09:36;;;;;;;1.00;0.70;;;;;;;15.72;59.46;97067.31;110183;1242;59733;-69
2023/11/01 10:12:09;;;;;;;1.70;1.10;;;;;;;15.33;60.67;97062.75;110149;1244;71406;-70
2023/11/01 10:14:39;;;;;;;0.90;0.80;;;;;;;15.11;60.85;97062.06;110176;1240;68410;-69
2023/11/01 10:17:08;;;;;;;0.80;0.80;;;;;;;14.97;63.13;97066.08;110120;1241;69910;-69
2023/11/01 10:19:43;;;;;;;1.30;1.00;;;;;;;14.80;65.39;97065.73;110169;1240;60139;-69
2023/11/01 10:22:12;;;;;;;1.00;0.80;;;;;;;14.67;63.93;97060.64;110162;1242;59728;-69
2023/11/01 10:24:43;;;;;;;1.00;0.70;;;;;;;14.60;64.91;97058.90;110164;1242;70736;-69
2023/11/01 10:27:12;;;;;;;1.00;0.70;;;;;;;14.47;65.83;97066.24;110146;1241;68503;-68
2023/11/01 10:29:44;;;;;;;2.30;1.10;;;;;;;14.39;67.86;97064.51;110140;1242;69586;-69
2023/11/01 10:32:14;;;;;;;1.00;0.80;;;;;;;14.33;65.42;97059.16;110195;1243;59682;-69
2023/11/01 10:34:43;;;;;;;;;;;;;;;14.15;66.03;97062.16;110212;1242;59753;-69
2023/11/01 10:37:17;;;;;;;1.00;0.90;;;;;;;13.99;67.52;97067.18;110180;1242;71439;-69
2023/11/01 10:39:46;;;;;;;1.40;1.00;;;;;;;13.84;67.52;97072.27;110163;1242;69044;-67
2023/11/01 10:42:17;;;;;;;1.10;0.70;;;;;;;13.93;68.05;97072.64;110128;1242;69866;-69
2023/11/01 10:44:46;;;;;;;2.00;0.70;;;;;;;13.91;69.45;97073.53;110198;1240;59744;-69
2023/11/01 10:47:18;;;;;;;1.30;1.00;;;;;;;13.85;67.34;97073.02;110159;1241;59669;-70
2023/11/01 10:49:50;;;;;;;1.30;0.90;;;;;;;13.97;67.04;97080.13;110196;1243;70587;-70
2023/11/01 10:52:20;;;;;;;1.90;1.10;;;;;;;14.03;66.63;97073.83;110192;1242;69816;-70
2023/11/01 10:54:51;;;;;;;1.30;0.90;;;;;;;13.92;67.12;97079.23;110190;1243;69648;-69
2023/11/01 10:57:23;;;;;;;0.90;0.90;;;;;;;13.74;67.36;97077.87;110155;1242;59728;-70
2023/11/01 11:00:08;;;;;;;4.40;2.40;;;;;;;13.94;67.67;97080.45;110233;1241;59679;-70
2023/11/01 11:03:11;;;;;;;9.00;5.00;;;;;;;14.10;67.92;97084.95;110215;1240;71386;-68
2023/11/01 11:05:43;;;;;;;3.00;1.60;;;;;;;14.12;67.43;97094.86;110202;1242;70086;-69
2023/11/01 11:08:12;;;;;;;3.60;2.00;;;;;;;14.08;68.94;97092.79;110223;1243;68492;-70
2023/11/01 11:10:43;;;;;;;4.60;2.10;;;;;;;14.03;67.67;97088.73;110164;1240;59678;-71
2023/11/01 11:13:20;;;;;;;8.90;3.90;;;;;;;13.83;68.54;97091.80;110142;1240;59696;-70
2023/11/01 11:18:28;;;;;;;1.30;1.20;;;;;;;13.65;68.93;97088.13;110110;1240;70087;-69
2023/11/01 11:20:58;;;;;;;2.60;1.60;;;;;;;13.43;69.48;97084.30;110154;1243;69100;-69
2023/11/01 11:23:32;;;;;;;1.80;1.40;;;;;;;13.24;71.11;97081.01;110140;1243;59806;-69
2023/11/01 11:26:03;;;;;;;2.10;1.50;;;;;;;13.05;71.79;97083.14;110169;1243;59625;-70
2023/11/01 11:28:32;;;;;;;3.00;1.40;;;;;;;12.96;72.87;97084.10;110155;1242;72313;-68
2023/11/01 11:31:12;;;;;;;1.60;1.50;;;;;;;12.83;74.56;97084.04;110158;1242;69267;-68
2023/11/01 11:33:44;;;;;;;1.60;1.50;;;;;;;12.78;74.63;97078.18;110163;1242;68663;-69
2023/11/01 11:36:23;;;;;;;2.10;1.60;;;;;;;12.78;74.41;97073.27;110138;1240;59748;-68
2023/11/01 11:38:57;;;;;;;1.90;1.40;;;;;;;12.62;75.28;97074.98;110158;1240;59689;-69
2023/11/01 11:41:39;;;;;;;2.50;1.30;;;;;;;12.75;75.00;97074.71;110153;1240;71400;-69
2023/11/01 11:44:14;;;;;;;2.60;1.40;;;;;;;12.99;75.63;97071.47;110142;1242;69277;-69